Time;durP1;ratioP1;P1;durP2;ratioP2;P2;SDS_P1;SDS_P2;PMS_P1;PMS_P2;Temp;Humidity;BMP_temperature;BMP_pressure;BME280_temperature;BME280_humidity;BME280_pressure;Samples;Min_cycle;Max_cycle;Signal;HPM_P1;HPM_P2
2022/12/06 00:01:33;;;;;;;14.60;8.33;;;2.10;99.90;;;;;;5068425;28;20182;-83
2022/12/06 00:04:04;;;;;;;12.93;7.77;;;2.20;99.90;;;;;;5059332;28;20241;-81
2022/12/06 00:06:31;;;;;;;14.77;7.70;;;2.10;99.90;;;;;;5075703;28;20184;-83
2022/12/06 00:08:58;;;;;;;14.43;7.77;;;2.10;99.90;;;;;;5076360;28;20180;-83
2022/12/06 00:11:30;;;;;;;12.13;7.40;;;2.10;99.90;;;;;;5075236;28;20654;-83
2022/12/06 00:13:58;;;;;;;14.37;7.03;;;2.20;99.90;;;;;;5076854;28;20655;-83
2022/12/06 00:16:25;;;;;;;17.23;7.60;;;2.20;99.90;;;;;;5075899;28;20181;-83
2022/12/06 00:18:52;;;;;;;14.67;7.10;;;2.20;99.90;;;;;;5074784;28;20221;-83
2022/12/06 00:21:21;;;;;;;12.30;6.73;;;2.20;99.90;;;;;;5074439;28;20181;-83
2022/12/06 00:23:49;;;;;;;10.10;6.73;;;2.10;99.90;;;;;;5075497;28;20177;-83
2022/12/06 00:26:15;;;;;;;11.17;6.40;;;2.10;99.90;;;;;;5072860;28;20677;-83
2022/12/06 00:28:42;;;;;;;12.50;6.83;;;2.20;99.90;;;;;;5074975;28;20638;-83
2022/12/06 00:31:11;;;;;;;10.90;6.10;;;2.10;99.90;;;;;;5075512;28;20184;-83
2022/12/06 00:33:37;;;;;;;13.60;7.17;;;2.10;99.90;;;;;;5076515;28;20177;-83
2022/12/06 00:36:09;;;;;;;12.47;6.57;;;2.10;99.90;;;;;;5073952;28;20194;-84
2022/12/06 00:38:35;;;;;;;11.60;6.57;;;2.10;99.90;;;;;;5074855;28;20178;-83
2022/12/06 00:41:04;;;;;;;10.33;6.63;;;2.10;99.90;;;;;;5073622;28;20189;-83
2022/12/06 00:43:31;;;;;;;11.13;7.10;;;2.10;99.90;;;;;;5075868;28;20180;-83
2022/12/06 00:45:57;;;;;;;10.50;6.23;;;2.20;99.90;;;;;;5075295;28;20225;-83
2022/12/06 00:48:23;;;;;;;12.80;6.53;;;2.10;99.90;;;;;;5076193;28;20627;-83
2022/12/06 00:50:49;;;;;;;10.00;6.23;;;2.10;99.90;;;;;;5073728;28;20193;-83
2022/12/06 00:53:15;;;;;;;13.27;6.27;;;2.20;99.90;;;;;;5074696;28;20612;-83
2022/12/06 00:55:44;;;;;;;10.77;6.73;;;2.20;99.90;;;;;;5073634;28;20185;-81
2022/12/06 00:58:11;;;;;;;12.03;6.33;;;2.10;99.90;;;;;;5070070;28;20567;-86
2022/12/06 01:00:37;;;;;;;13.63;6.83;;;2.10;99.90;;;;;;5070442;28;20189;-83
2022/12/06 01:03:03;;;;;;;11.23;6.53;;;2.10;99.90;;;;;;5075954;28;20189;-87
2022/12/06 01:05:29;;;;;;;11.33;6.73;;;2.20;99.90;;;;;;5074997;28;20213;-89
2022/12/06 01:10:30;;;;;;;11.73;6.63;;;2.10;99.90;;;;;;5324344;22;20836;-87
2022/12/06 01:12:56;;;;;;;10.73;6.47;;;2.10;99.90;;;;;;5054953;28;20669;-86
2022/12/06 01:15:21;;;;;;;12.20;6.87;;;2.10;99.90;;;;;;5054605;28;20252;-86
2022/12/06 01:17:47;;;;;;;11.53;6.60;;;2.10;99.90;;;;;;5055568;28;20643;-88
2022/12/06 01:20:14;;;;;;;10.37;6.70;;;2.10;99.90;;;;;;5055644;28;20189;-84
2022/12/06 01:22:39;;;;;;;10.10;6.20;;;2.10;99.90;;;;;;5051317;28;20229;-87
2022/12/06 01:25:05;;;;;;;10.17;6.23;;;2.10;99.90;;;;;;5052526;28;20665;-88
2022/12/06 01:27:31;;;;;;;11.33;6.03;;;2.10;99.90;;;;;;5071563;28;20693;-87
2022/12/06 01:29:57;;;;;;;9.70;6.23;;;2.10;99.90;;;;;;5050322;28;20192;-84
2022/12/06 01:32:22;;;;;;;8.93;5.53;;;2.10;99.90;;;;;;5054173;28;20182;-87
2022/12/06 01:34:51;;;;;;;8.97;5.30;;;2.10;99.90;;;;;;5055476;28;20198;-89
2022/12/06 01:37:17;;;;;;;8.80;5.63;;;2.10;99.90;;;;;;5054165;28;20258;-86
2022/12/06 01:39:43;;;;;;;9.00;5.73;;;2.10;99.90;;;;;;5054108;28;20297;-91
2022/12/06 01:42:13;;;;;;;11.20;6.37;;;2.20;99.90;;;;;;5053957;28;20577;-88
2022/12/06 01:44:51;;;;;;;10.40;6.10;;;2.20;99.90;;;;;;5055244;28;20574;-84
2022/12/06 01:47:26;;;;;;;9.13;5.70;;;2.20;99.90;;;;;;5054384;28;20228;-85
2022/12/06 01:50:31;;;;;;;11.70;5.47;;;2.10;99.90;;;;;;5054151;28;20177;-87
2022/12/06 01:53:05;;;;;;;9.50;5.80;;;2.10;99.90;;;;;;5018286;28;20200;-87
2022/12/06 01:55:36;;;;;;;9.07;5.33;;;2.10;99.90;;;;;;5049022;28;20259;-89
2022/12/06 01:58:08;;;;;;;11.63;6.27;;;2.10;99.90;;;;;;5055267;28;20186;-89
2022/12/06 02:00:34;;;;;;;9.10;6.03;;;2.10;99.90;;;;;;5053419;28;20267;-88
2022/12/06 02:03:02;;;;;;;9.17;5.40;;;2.10;99.90;;;;;;5048487;28;20193;-88
2022/12/06 02:05:29;;;;;;;9.90;5.87;;;2.10;99.90;;;;;;5053303;28;20240;-87
2022/12/06 02:07:57;;;;;;;8.87;5.33;;;2.10;99.90;;;;;;5053471;28;20182;-86
2022/12/06 02:10:22;;;;;;;9.60;5.53;;;2.10;99.90;;;;;;5052849;28;20240;-91
2022/12/06 02:12:53;;;;;;;8.50;5.10;;;2.10;99.90;;;;;;5053477;28;20190;-87
2022/12/06 02:15:23;;;;;;;7.60;4.63;;;2.10;99.90;;;;;;5052648;28;20190;-90
2022/12/06 02:18:01;;;;;;;6.80;4.60;;;2.10;99.90;;;;;;5054033;28;20251;-86
2022/12/06 02:21:15;;;;;;;6.77;4.70;;;2.10;99.90;;;;;;5048409;28;20624;-83
2022/12/06 02:23:54;;;;;;;7.90;4.67;;;2.10;99.90;;;;;;5051608;28;20251;-84
2022/12/06 02:26:26;;;;;;;7.13;4.23;;;2.10;99.90;;;;;;5046665;28;20581;-85
2022/12/06 02:29:29;;;;;;;4.80;3.77;;;2.10;99.90;;;;;;5052101;28;20178;-84
2022/12/06 02:31:59;;;;;;;5.77;4.03;;;2.10;99.90;;;;;;4987949;28;20243;-87
2022/12/06 02:34:39;;;;;;;5.13;4.30;;;2.10;99.90;;;;;;5044563;28;20205;-84
2022/12/06 02:37:35;;;;;;;4.73;3.87;;;2.10;99.90;;;;;;5052666;28;20189;-86
2022/12/06 02:40:14;;;;;;;5.60;3.87;;;2.10;99.90;;;;;;5046875;28;20247;-86
2022/12/06 02:42:55;;;;;;;5.27;3.80;;;2.10;99.90;;;;;;5042064;28;20265;-83
2022/12/06 02:45:27;;;;;;;5.77;4.10;;;2.10;99.90;;;;;;5052712;28;20229;-85
2022/12/06 02:47:58;;;;;;;6.10;4.23;;;2.10;99.90;;;;;;5053879;28;20181;-85
2022/12/06 02:50:36;;;;;;;9.60;4.20;;;2.00;99.90;;;;;;5053320;28;20573;-87
2022/12/06 02:53:05;;;;;;;5.97;4.50;;;2.10;99.90;;;;;;5052768;28;20628;-86
2022/12/06 02:55:32;;;;;;;6.03;3.93;;;2.10;99.90;;;;;;5054291;28;20185;-85
2022/12/06 02:57:57;;;;;;;4.93;3.93;;;2.00;99.90;;;;;;5051223;28;20186;-85
2022/12/06 03:00:39;;;;;;;6.27;4.47;;;2.00;99.90;;;;;;5052013;28;20182;-87
2022/12/06 03:03:35;;;;;;;7.37;4.50;;;2.00;99.90;;;;;;5052551;28;20705;-84
2022/12/06 03:06:00;;;;;;;5.30;4.30;;;2.00;99.90;;;;;;5052568;28;20657;-84
2022/12/06 03:08:35;;;;;;;5.53;4.57;;;2.00;99.90;;;;;;5052933;28;20276;-85
2022/12/06 03:11:02;;;;;;;5.90;4.43;;;2.00;99.90;;;;;;5051647;28;20942;-85
2022/12/06 03:14:03;;;;;;;7.43;5.33;;;2.00;99.90;;;;;;5058215;28;20234;-84
2022/12/06 03:16:47;;;;;;;6.93;5.27;;;2.00;99.90;;;;;;5048375;28;20192;-92
2022/12/06 03:19:19;;;;;;;7.73;5.47;;;2.00;99.90;;;;;;5055723;28;20182;-92
2022/12/06 03:22:05;;;;;;;8.60;5.33;;;2.10;99.90;;;;;;5073121;28;20181;-83
2022/12/06 03:24:35;;;;;;;8.13;5.47;;;2.00;99.90;;;;;;5049792;28;20204;-93
2022/12/06 03:27:15;;;;;;;6.90;5.00;;;2.00;99.90;;;;;;5055233;28;20619;-91
2022/12/06 03:29:46;;;;;;;8.20;5.33;;;2.00;99.90;;;;;;5055595;28;20229;-92
2022/12/06 03:32:16;;;;;;;8.57;6.03;;;2.00;99.90;;;;;;5079156;28;20181;-89
2022/12/06 03:34:46;;;;;;;8.40;6.13;;;2.00;99.90;;;;;;5064675;28;20186;-89
2022/12/06 03:37:15;;;;;;;9.30;5.93;;;2.00;99.90;;;;;;5049602;28;20268;-94
2022/12/06 03:40:03;;;;;;;8.10;5.80;;;2.00;99.90;;;;;;5055111;28;20647;-90
2022/12/06 03:42:34;;;;;;;7.57;5.50;;;2.10;99.90;;;;;;5058264;28;20212;-93
2022/12/06 03:45:00;;;;;;;8.17;5.87;;;2.00;99.90;;;;;;5055406;28;20708;-93
2022/12/06 03:47:44;;;;;;;7.37;5.50;;;2.00;99.90;;;;;;5066315;28;20188;-90
2022/12/06 03:50:17;;;;;;;8.47;5.93;;;2.00;99.90;;;;;;5061122;28;20611;-85
2022/12/06 03:52:44;;;;;;;9.13;5.83;;;2.00;99.90;;;;;;5042127;28;20508;-90
2022/12/06 03:55:09;;;;;;;7.67;5.30;;;2.00;99.90;;;;;;5057942;28;20200;-86
2022/12/06 03:57:35;;;;;;;9.17;5.47;;;2.10;99.90;;;;;;5059033;28;20185;-92
2022/12/06 04:00:01;;;;;;;6.90;5.00;;;2.10;99.90;;;;;;5074485;28;20185;-85
2022/12/06 04:02:27;;;;;;;9.13;5.70;;;2.00;99.90;;;;;;5052617;28;20188;-84
2022/12/06 04:04:53;;;;;;;7.67;4.87;;;2.00;99.90;;;;;;5082073;28;20215;-85
2022/12/06 04:07:20;;;;;;;7.03;4.70;;;2.00;99.90;;;;;;5050363;28;20276;-91
2022/12/06 04:09:55;;;;;;;7.47;5.00;;;2.00;99.90;;;;;;5078256;28;20270;-84
2022/12/06 04:15:07;;;;;;;6.53;4.70;;;2.00;99.90;;;;;;5071280;28;20206;-84
2022/12/06 04:20:19;;;;;;;6.23;4.37;;;2.00;99.90;;;;;;5061789;28;20746;-85
2022/12/06 04:23:03;;;;;;;7.20;5.20;;;2.00;99.90;;;;;;5068052;28;20264;-84
2022/12/06 04:25:34;;;;;;;6.43;4.60;;;2.00;99.90;;;;;;5071592;28;20761;-83
2022/12/06 04:38:58;;;;;;;6.13;4.73;;;2.00;99.90;;;;;;5070865;28;20268;-85
2022/12/06 04:44:08;;;;;;;8.00;5.17;;;2.00;99.90;;;;;;5053143;28;20666;-87
2022/12/06 04:46:34;;;;;;;7.50;5.30;;;2.00;99.90;;;;;;5059875;28;20264;-87
2022/12/06 04:48:59;;;;;;;6.90;4.97;;;2.00;99.90;;;;;;5063177;28;20528;-85
2022/12/06 04:51:26;;;;;;;6.83;5.23;;;2.00;99.90;;;;;;5075665;28;20264;-83
2022/12/06 04:53:51;;;;;;;7.97;4.80;;;2.00;99.90;;;;;;5058522;28;20193;-85
2022/12/06 04:56:18;;;;;;;8.93;5.30;;;1.90;99.90;;;;;;5058271;28;20194;-87
2022/12/06 04:58:43;;;;;;;5.73;4.60;;;1.90;99.90;;;;;;5056498;28;20846;-86
2022/12/06 05:01:09;;;;;;;6.20;4.50;;;1.90;99.90;;;;;;5057074;28;20193;-85
2022/12/06 05:03:36;;;;;;;6.03;4.77;;;1.90;99.90;;;;;;5067756;28;20589;-85
2022/12/06 05:06:02;;;;;;;6.63;4.77;;;1.90;99.90;;;;;;5069715;28;20240;-85
2022/12/06 05:08:27;;;;;;;6.83;4.93;;;1.90;99.90;;;;;;5060270;28;20224;-84
2022/12/06 05:10:53;;;;;;;6.47;4.90;;;1.90;99.90;;;;;;5054676;28;20591;-85
2022/12/06 05:13:19;;;;;;;5.70;4.83;;;1.90;99.90;;;;;;5072564;28;20628;-88
2022/12/06 05:16:02;;;;;;;6.40;5.00;;;1.90;99.90;;;;;;5054645;28;20284;-91
2022/12/06 05:18:29;;;;;;;7.63;5.30;;;1.90;99.90;;;;;;5065501;28;20186;-90
2022/12/06 05:21:14;;;;;;;6.07;4.57;;;1.90;99.90;;;;;;5076835;28;20851;-85
2022/12/06 05:23:39;;;;;;;5.73;4.50;;;1.90;99.90;;;;;;5069546;28;20204;-87
2022/12/06 05:26:12;;;;;;;6.27;4.13;;;1.80;99.90;;;;;;5077003;28;20655;-91
2022/12/06 05:28:38;;;;;;;6.07;4.27;;;1.90;99.90;;;;;;5077333;28;20230;-89
2022/12/06 05:31:04;;;;;;;6.13;4.27;;;1.90;99.90;;;;;;5077461;28;20184;-91
2022/12/06 05:33:30;;;;;;;5.77;4.50;;;1.90;99.90;;;;;;5060807;28;20200;-87
2022/12/06 05:35:56;;;;;;;7.00;4.33;;;1.80;99.90;;;;;;5057678;28;20189;-92
2022/12/06 05:38:22;;;;;;;5.73;4.17;;;1.80;99.90;;;;;;5062903;28;20189;-89
2022/12/06 05:40:48;;;;;;;7.30;4.77;;;1.80;99.90;;;;;;5074314;28;20643;-94
2022/12/06 05:43:15;;;;;;;5.57;4.53;;;1.80;99.90;;;;;;5058194;28;20185;-92
2022/12/06 05:45:41;;;;;;;5.73;4.33;;;1.80;99.90;;;;;;5055197;28;20244;-89
2022/12/06 05:48:07;;;;;;;6.70;4.80;;;1.80;99.90;;;;;;5061317;28;20187;-81
2022/12/06 05:50:33;;;;;;;5.87;4.03;;;1.80;99.90;;;;;;5069324;28;20249;-80
2022/12/06 05:52:59;;;;;;;5.77;4.43;;;1.70;99.90;;;;;;5074304;28;20197;-82
2022/12/06 05:55:27;;;;;;;5.77;4.27;;;1.80;99.90;;;;;;5061766;28;20184;-82
2022/12/06 05:57:53;;;;;;;5.87;4.43;;;1.80;99.90;;;;;;5067308;28;20183;-88
2022/12/06 06:00:19;;;;;;;6.53;4.20;;;1.70;99.90;;;;;;5067785;28;20691;-88
2022/12/06 06:02:45;;;;;;;4.67;4.13;;;1.70;99.90;;;;;;5058392;28;20288;-84
2022/12/06 06:05:21;;;;;;;6.13;4.57;;;1.70;99.90;;;;;;5056708;28;20224;-90
2022/12/06 06:07:47;;;;;;;5.37;4.27;;;1.70;99.90;;;;;;5083751;28;20194;-90
2022/12/06 06:10:14;;;;;;;5.07;4.20;;;1.70;99.90;;;;;;5067009;28;20283;-88
2022/12/06 06:12:40;;;;;;;5.40;4.37;;;1.70;99.90;;;;;;5042129;28;20227;-90
2022/12/06 06:15:15;;;;;;;5.60;4.53;;;1.70;99.90;;;;;;5054736;28;20217;-91
2022/12/06 06:17:42;;;;;;;7.10;4.90;;;1.70;99.90;;;;;;5048828;28;20185;-91
2022/12/06 06:20:12;;;;;;;6.90;4.80;;;1.70;99.90;;;;;;5054551;28;20265;-92
2022/12/06 06:22:40;;;;;;;6.87;5.23;;;1.70;99.90;;;;;;5036121;28;20194;-93
2022/12/06 06:25:06;;;;;;;5.63;5.03;;;1.80;99.90;;;;;;5050922;28;20214;-89
2022/12/06 06:27:35;;;;;;;6.87;4.90;;;1.70;99.90;;;;;;5036445;28;20190;-86
2022/12/06 06:30:02;;;;;;;5.87;4.70;;;1.70;99.90;;;;;;5054184;28;20286;-86
2022/12/06 06:32:28;;;;;;;5.97;4.57;;;1.70;99.90;;;;;;5048027;28;20524;-87
2022/12/06 06:34:55;;;;;;;7.97;4.97;;;1.70;99.90;;;;;;5055008;28;20193;-87
2022/12/06 06:37:20;;;;;;;7.83;5.33;;;1.70;99.90;;;;;;5036009;28;20662;-87
2022/12/06 06:39:46;;;;;;;7.43;5.33;;;1.70;99.90;;;;;;5033802;28;20189;-86
2022/12/06 06:42:12;;;;;;;7.17;5.57;;;1.70;99.90;;;;;;5037275;28;20181;-85
2022/12/06 06:44:44;;;;;;;5.63;4.87;;;1.80;99.90;;;;;;5051735;28;20209;-90
2022/12/06 06:47:10;;;;;;;7.57;5.10;;;1.80;99.90;;;;;;5059345;28;20602;-81
2022/12/06 06:49:36;;;;;;;5.50;4.77;;;1.80;99.90;;;;;;5031376;28;20276;-83
2022/12/06 06:52:01;;;;;;;5.97;4.70;;;1.80;99.90;;;;;;5036585;28;20332;-84
2022/12/06 06:54:27;;;;;;;6.40;4.30;;;1.80;99.90;;;;;;5036003;28;20182;-93
2022/12/06 06:56:55;;;;;;;8.07;5.17;;;1.80;99.90;;;;;;5059408;28;20273;-81
2022/12/06 06:59:21;;;;;;;5.73;4.70;;;1.80;99.90;;;;;;5035372;28;20220;-81
2022/12/06 07:01:47;;;;;;;6.77;4.90;;;1.80;99.90;;;;;;5053152;28;20197;-91
2022/12/06 07:04:13;;;;;;;6.23;4.50;;;1.80;99.90;;;;;;5060442;28;20189;-85
2022/12/06 07:06:39;;;;;;;6.67;4.73;;;1.80;99.90;;;;;;5052831;28;20201;-82
2022/12/06 07:09:04;;;;;;;7.10;4.80;;;1.80;99.90;;;;;;5037461;28;20225;-82
2022/12/06 07:11:30;;;;;;;8.20;5.23;;;1.80;99.90;;;;;;5073576;28;20215;-82
2022/12/06 07:13:56;;;;;;;7.63;5.70;;;1.80;99.90;;;;;;5072012;28;20181;-81
2022/12/06 07:16:21;;;;;;;12.43;8.13;;;1.80;99.90;;;;;;5072606;28;20214;-81
2022/12/06 07:18:47;;;;;;;6.40;5.37;;;1.80;99.90;;;;;;5071484;28;20208;-90
2022/12/06 07:21:14;;;;;;;8.17;5.50;;;1.80;99.90;;;;;;5072532;28;20190;-83
2022/12/06 07:23:40;;;;;;;6.43;4.70;;;1.80;99.90;;;;;;5053797;28;20189;-81
2022/12/06 07:26:12;;;;;;;6.40;5.00;;;1.80;99.90;;;;;;5052980;28;20228;-81
2022/12/06 07:28:39;;;;;;;7.97;4.87;;;1.80;99.90;;;;;;5073648;28;20199;-82
2022/12/06 07:31:08;;;;;;;7.30;5.00;;;1.80;99.90;;;;;;5053842;28;20230;-81
2022/12/06 07:33:34;;;;;;;9.20;5.47;;;1.90;99.90;;;;;;5055318;28;20193;-81
2022/12/06 07:36:00;;;;;;;5.97;4.80;;;1.90;99.90;;;;;;5053995;28;20273;-82
2022/12/06 07:38:25;;;;;;;6.27;5.00;;;1.90;99.90;;;;;;5050394;28;20189;-81
2022/12/06 07:40:51;;;;;;;7.00;4.50;;;1.90;99.90;;;;;;5068450;28;20188;-81
2022/12/06 07:46:01;;;;;;;4.80;3.97;;;1.90;99.90;;;;;;5063437;28;20219;-80
2022/12/06 07:48:27;;;;;;;5.80;4.20;;;2.00;99.90;;;;;;5054697;28;20517;-83
2022/12/06 07:50:52;;;;;;;6.97;4.40;;;2.00;99.90;;;;;;5070666;28;20185;-86
2022/12/06 07:53:18;;;;;;;6.03;4.23;;;2.00;99.90;;;;;;5072246;28;20181;-82
2022/12/06 07:55:44;;;;;;;6.60;4.27;;;2.10;99.90;;;;;;5053960;28;20189;-80
2022/12/06 07:58:10;;;;;;;4.80;3.70;;;2.00;99.90;;;;;;5073705;28;20507;-81
2022/12/06 08:00:36;;;;;;;6.27;4.00;;;2.00;99.90;;;;;;5071606;28;20194;-80
2022/12/06 08:03:02;;;;;;;8.37;4.23;;;2.00;99.90;;;;;;5051482;28;20518;-82
2022/12/06 08:05:28;;;;;;;5.00;3.50;;;2.10;99.90;;;;;;5055036;28;20223;-86
2022/12/06 08:07:53;;;;;;;4.77;3.60;;;2.10;99.90;;;;;;5055070;28;20691;-83
2022/12/06 08:10:19;;;;;;;4.80;3.23;;;2.10;99.90;;;;;;5073551;28;20263;-81
2022/12/06 08:12:45;;;;;;;5.80;3.73;;;2.10;99.90;;;;;;5055484;28;20174;-82
2022/12/06 08:15:13;;;;;;;5.50;3.60;;;2.10;99.90;;;;;;5032814;28;20255;-81
2022/12/06 08:17:40;;;;;;;5.00;3.60;;;2.10;99.90;;;;;;5034348;28;20194;-81
2022/12/06 08:20:07;;;;;;;3.50;3.10;;;2.10;99.90;;;;;;5035234;28;20244;-81
2022/12/06 08:22:33;;;;;;;4.37;3.20;;;2.10;99.90;;;;;;5052052;28;20182;-82
2022/12/06 08:24:59;;;;;;;4.93;3.53;;;2.20;99.90;;;;;;5056071;28;20217;-83
2022/12/06 08:27:25;;;;;;;4.00;3.27;;;2.10;99.90;;;;;;5038549;28;20243;-81
2022/12/06 08:29:51;;;;;;;6.13;3.47;;;2.20;99.90;;;;;;5038939;28;20190;-81
2022/12/06 08:32:17;;;;;;;4.63;3.43;;;2.10;99.90;;;;;;5037859;28;20190;-81
2022/12/06 08:34:43;;;;;;;4.60;3.30;;;2.10;99.90;;;;;;5055445;28;20182;-81
2022/12/06 08:37:10;;;;;;;3.87;3.20;;;2.10;99.90;;;;;;5058062;28;20189;-81
2022/12/06 08:39:35;;;;;;;4.43;3.23;;;2.20;99.90;;;;;;5038482;28;20174;-82
2022/12/06 08:42:02;;;;;;;4.53;3.30;;;2.20;99.90;;;;;;5062519;28;20190;-81
2022/12/06 08:44:30;;;;;;;4.57;3.20;;;2.20;99.90;;;;;;5073816;28;20227;-82
2022/12/06 08:46:58;;;;;;;3.57;2.77;;;2.20;99.90;;;;;;5055126;28;20205;-81
2022/12/06 08:49:24;;;;;;;5.20;3.00;;;2.20;99.90;;;;;;5055815;28;20221;-82
2022/12/06 08:51:51;;;;;;;4.90;2.93;;;2.20;99.90;;;;;;5038834;28;20568;-81
2022/12/06 08:54:20;;;;;;;5.37;3.30;;;2.20;99.90;;;;;;5055300;28;20189;-82
2022/12/06 08:56:46;;;;;;;5.07;3.50;;;2.20;99.90;;;;;;5056237;28;20185;-81
2022/12/06 08:59:12;;;;;;;5.27;3.50;;;2.30;99.90;;;;;;5042845;28;20624;-81
2022/12/06 09:01:38;;;;;;;5.83;3.87;;;2.30;99.90;;;;;;5073194;28;20256;-82
2022/12/06 09:04:05;;;;;;;9.43;5.37;;;2.40;99.90;;;;;;5044832;28;20198;-81
2022/12/06 09:06:31;;;;;;;7.77;4.50;;;2.40;99.90;;;;;;5055578;28;20537;-81
2022/12/06 09:08:57;;;;;;;6.67;3.93;;;2.40;99.90;;;;;;5056832;28;20261;-81
2022/12/06 09:11:24;;;;;;;4.67;3.33;;;2.40;99.90;;;;;;5058019;28;20200;-81
2022/12/06 09:13:50;;;;;;;3.73;3.07;;;2.50;99.90;;;;;;5073926;28;20189;-81
2022/12/06 09:16:19;;;;;;;4.27;3.20;;;2.50;99.90;;;;;;5076089;28;20208;-81
2022/12/06 09:18:45;;;;;;;4.40;3.43;;;2.50;99.90;;;;;;5074997;28;20170;-81
2022/12/06 09:21:14;;;;;;;6.30;3.67;;;2.50;99.90;;;;;;5057834;28;20185;-81
2022/12/06 09:23:40;;;;;;;4.33;3.30;;;2.60;99.90;;;;;;5075261;28;20669;-86
2022/12/06 09:26:07;;;;;;;4.43;3.20;;;2.60;99.90;;;;;;5075475;28;20221;-82
2022/12/06 09:28:38;;;;;;;4.83;3.03;;;2.60;99.90;;;;;;5057498;28;20588;-83
2022/12/06 09:31:06;;;;;;;4.90;3.20;;;2.60;99.90;;;;;;5051610;28;20185;-83
2022/12/06 09:33:33;;;;;;;4.20;3.17;;;2.60;99.90;;;;;;5075592;28;20181;-89
2022/12/06 09:36:18;;;;;;;5.13;3.67;;;2.60;99.90;;;;;;5065441;28;20189;-83
2022/12/06 09:38:46;;;;;;;3.93;2.90;;;2.70;99.90;;;;;;5069077;28;20642;-82
2022/12/06 09:41:38;;;;;;;4.13;2.83;;;2.70;99.90;;;;;;5057555;28;20185;-83
2022/12/06 09:44:31;;;;;;;4.60;3.03;;;2.70;99.90;;;;;;5075226;28;20678;-84
2022/12/06 09:47:03;;;;;;;4.30;3.20;;;2.70;99.90;;;;;;5057013;28;20189;-83
2022/12/06 09:49:57;;;;;;;4.50;2.90;;;2.80;99.90;;;;;;5056229;28;20583;-82
2022/12/06 09:52:35;;;;;;;4.97;2.77;;;2.80;99.90;;;;;;5057176;28;20180;-83
2022/12/06 09:55:22;;;;;;;4.63;2.77;;;2.80;99.90;;;;;;5055282;28;20241;-81
2022/12/06 09:58:06;;;;;;;4.43;3.13;;;2.90;99.90;;;;;;5056517;28;20244;-82
2022/12/06 10:00:47;;;;;;;5.70;2.70;;;2.90;99.90;;;;;;5055573;28;20185;-81
2022/12/06 10:03:36;;;;;;;5.03;3.63;;;2.90;99.90;;;;;;5057303;28;20509;-83
2022/12/06 10:06:07;;;;;;;8.30;3.63;;;2.90;99.90;;;;;;5055593;28;20213;-83
2022/12/06 10:09:03;;;;;;;6.53;3.90;;;3.00;99.90;;;;;;5056168;28;20212;-85
2022/12/06 10:12:11;;;;;;;8.63;3.87;;;3.00;99.90;;;;;;5056748;28;20200;-82
2022/12/06 10:15:10;;;;;;;8.60;4.30;;;3.00;99.90;;;;;;5052776;28;20264;-82
2022/12/06 10:17:45;;;;;;;7.30;4.37;;;3.00;99.90;;;;;;5069357;28;20204;-82
2022/12/06 10:20:42;;;;;;;9.17;4.37;;;3.10;99.90;;;;;;5055504;28;20677;-81
2022/12/06 10:23:42;;;;;;;9.57;4.77;;;3.10;99.90;;;;;;5056622;28;20200;-81
2022/12/06 10:26:15;;;;;;;8.00;3.97;;;3.10;99.90;;;;;;5038195;28;20202;-91
2022/12/06 10:28:57;;;;;;;7.47;4.50;;;3.10;99.90;;;;;;5058519;28;20180;-94
2022/12/06 10:31:30;;;;;;;8.87;4.37;;;3.10;99.90;;;;;;5057721;28;20181;-86
2022/12/06 10:34:06;;;;;;;8.93;4.33;;;3.20;99.90;;;;;;5042518;28;20203;-82
2022/12/06 10:36:57;;;;;;;7.30;4.87;;;3.20;99.90;;;;;;5057405;28;20223;-90
2022/12/06 10:39:31;;;;;;;7.33;4.57;;;3.10;99.90;;;;;;5061559;28;20177;-92
2022/12/06 10:42:12;;;;;;;8.37;5.30;;;3.10;99.90;;;;;;5088574;28;20255;-92
2022/12/06 10:47:02;;;;;;;7.30;4.60;;;3.20;99.90;;;;;;5065641;28;20197;-83
2022/12/06 10:47:59;;;;;;;8.63;4.83;;;3.20;99.90;;;;;;5067647;28;20189;-90
2022/12/06 10:50:34;;;;;;;7.53;5.30;;;3.20;99.90;;;;;;5072687;28;20631;-90
2022/12/06 10:53:10;;;;;;;9.77;5.73;;;3.20;99.90;;;;;;5057165;28;20169;-91
2022/12/06 10:56:00;;;;;;;8.17;5.23;;;3.20;99.90;;;;;;5056592;28;20185;-88
2022/12/06 10:58:37;;;;;;;7.80;5.63;;;3.20;99.90;;;;;;5072274;28;20177;-84
2022/12/06 11:01:18;;;;;;;10.53;6.10;;;3.20;99.90;;;;;;5087689;28;20184;-82
2022/12/06 11:03:58;;;;;;;9.47;5.67;;;3.20;99.90;;;;;;5077714;28;20272;-92
2022/12/06 11:06:31;;;;;;;8.93;5.50;;;3.20;99.90;;;;;;5061962;28;20279;-82
2022/12/06 11:09:18;;;;;;;13.70;6.30;;;3.20;99.90;;;;;;5060394;28;20188;-82
2022/12/06 11:11:44;;;;;;;9.63;5.87;;;3.30;99.90;;;;;;5066352;28;20193;-81
2022/12/06 11:14:37;;;;;;;10.03;6.20;;;3.30;99.90;;;;;;5074291;28;20611;-87
2022/12/06 11:17:13;;;;;;;8.77;5.60;;;3.30;99.90;;;;;;5056679;28;20173;-83
2022/12/06 11:19:42;;;;;;;12.37;7.03;;;3.30;99.90;;;;;;5055979;28;20226;-82
2022/12/06 11:22:32;;;;;;;15.53;6.50;;;3.30;99.90;;;;;;5073818;28;20189;-84
2022/12/06 11:25:24;;;;;;;15.63;6.80;;;3.30;99.90;;;;;;5074045;28;20596;-82
2022/12/06 11:28:20;;;;;;;10.93;6.47;;;3.40;99.90;;;;;;5073758;28;20864;-93
2022/12/06 11:30:46;;;;;;;12.80;6.83;;;3.50;99.90;;;;;;5041022;28;20265;-86
2022/12/06 11:33:12;;;;;;;10.80;6.00;;;3.50;99.90;;;;;;5036647;28;20177;-85
2022/12/06 11:35:38;;;;;;;10.37;6.30;;;3.50;99.90;;;;;;5056366;28;20177;-90
2022/12/06 11:38:06;;;;;;;11.43;6.37;;;3.50;99.90;;;;;;5072914;28;20226;-86
2022/12/06 11:40:36;;;;;;;9.63;6.40;;;3.50;99.90;;;;;;5074587;28;20191;-94
2022/12/06 11:43:06;;;;;;;11.17;6.60;;;3.50;99.90;;;;;;5062221;28;20177;-94
2022/12/06 11:45:36;;;;;;;15.67;5.83;;;3.50;99.90;;;;;;5055453;28;20207;-81
2022/12/06 11:48:16;;;;;;;14.30;7.30;;;3.50;99.90;;;;;;5056222;28;20191;-84
2022/12/06 11:50:44;;;;;;;12.47;6.13;;;3.60;99.90;;;;;;5074554;28;20169;-84
2022/12/06 11:53:16;;;;;;;16.30;9.20;;;3.60;99.90;;;;;;5074783;28;20173;-81
2022/12/06 11:55:45;;;;;;;14.53;7.23;;;3.60;99.90;;;;;;5073513;28;20259;-80
2022/12/06 11:58:32;;;;;;;13.13;7.57;;;3.60;99.90;;;;;;5075656;28;20204;-86
2022/12/06 12:01:05;;;;;;;16.17;7.30;;;3.60;99.90;;;;;;5059084;28;20264;-82
2022/12/06 12:03:33;;;;;;;14.13;8.13;;;3.60;99.90;;;;;;5057479;28;20609;-82
2022/12/06 12:06:19;;;;;;;16.30;8.73;;;3.70;99.90;;;;;;5077867;28;20219;-81
2022/12/06 12:08:58;;;;;;;11.40;6.50;;;3.70;99.90;;;;;;5058349;28;20556;-89
2022/12/06 12:11:38;;;;;;;12.13;6.20;;;3.80;99.90;;;;;;5078632;28;20169;-87
2022/12/06 12:14:16;;;;;;;10.23;6.17;;;3.70;99.90;;;;;;5041791;28;20612;-94
2022/12/06 12:16:52;;;;;;;10.67;5.23;;;3.70;99.90;;;;;;5058191;28;20187;-89
2022/12/06 12:19:42;;;;;;;11.80;5.53;;;3.80;99.90;;;;;;5039858;28;20181;-83
2022/12/06 12:22:22;;;;;;;11.13;6.27;;;3.80;99.90;;;;;;5054972;28;20231;-85
2022/12/06 12:24:56;;;;;;;12.70;7.53;;;3.80;99.90;;;;;;5066515;28;20201;-83
2022/12/06 12:27:33;;;;;;;12.50;6.77;;;3.80;99.90;;;;;;5050607;28;20189;-82
2022/12/06 12:30:25;;;;;;;12.73;6.83;;;3.80;99.90;;;;;;5067370;28;20223;-81
2022/12/06 12:33:07;;;;;;;9.80;6.10;;;3.70;99.90;;;;;;5039270;28;20178;-81
2022/12/06 12:35:37;;;;;;;13.37;6.90;;;3.80;99.90;;;;;;5057080;28;20247;-81
2022/12/06 12:38:10;;;;;;;12.80;6.93;;;3.80;99.90;;;;;;5036606;28;20678;-82
2022/12/06 12:40:42;;;;;;;15.53;5.93;;;3.80;99.90;;;;;;5040235;28;20268;-81
2022/12/06 12:43:11;;;;;;;12.10;6.77;;;3.80;99.90;;;;;;5019168;28;20163;-81
2022/12/06 12:45:39;;;;;;;10.73;5.47;;;3.80;99.90;;;;;;5047152;28;20206;-81
2022/12/06 12:48:23;;;;;;;10.23;6.03;;;3.80;99.90;;;;;;5037027;28;20220;-80
2022/12/06 12:50:54;;;;;;;10.93;6.70;;;3.90;99.90;;;;;;5047260;28;20221;-81
2022/12/06 12:53:44;;;;;;;9.80;6.73;;;3.90;99.90;;;;;;5041040;28;20190;-83
2022/12/06 12:56:20;;;;;;;9.80;5.80;;;3.90;99.90;;;;;;5026830;28;20631;-81
2022/12/06 12:58:54;;;;;;;10.00;6.53;;;3.90;99.90;;;;;;5064904;28;20186;-84
2022/12/06 13:01:26;;;;;;;10.13;5.17;;;3.90;99.90;;;;;;5070504;28;20694;-82
2022/12/06 13:04:40;;;;;;;9.13;5.37;;;3.80;99.90;;;;;;5047791;28;20269;-81
2022/12/06 13:07:16;;;;;;;8.70;5.67;;;3.80;99.90;;;;;;5037436;28;20197;-82
2022/12/06 13:10:00;;;;;;;9.53;5.67;;;3.80;99.90;;;;;;5062267;28;20220;-82
2022/12/06 13:12:33;;;;;;;7.80;5.33;;;3.80;99.90;;;;;;5037911;28;20239;-84
2022/12/06 13:15:13;;;;;;;9.23;5.37;;;3.80;99.90;;;;;;5056256;28;20166;-84
2022/12/06 13:17:47;;;;;;;10.50;5.63;;;3.80;99.90;;;;;;5036613;28;20563;-82
2022/12/06 13:20:29;;;;;;;12.60;5.97;;;3.80;99.90;;;;;;5068342;28;20209;-82
2022/12/06 13:22:59;;;;;;;8.30;5.20;;;3.80;99.90;;;;;;5044669;28;20259;-81
2022/12/06 13:25:25;;;;;;;10.43;5.10;;;3.80;99.90;;;;;;5053828;28;20210;-83
2022/12/06 13:27:55;;;;;;;9.13;5.00;;;3.80;99.90;;;;;;5037339;28;20489;-82
2022/12/06 13:30:30;;;;;;;12.93;6.27;;;3.80;99.90;;;;;;5042192;28;20278;-82
2022/12/06 13:33:22;;;;;;;13.03;6.77;;;3.80;99.90;;;;;;5054115;28;20169;-82
2022/12/06 13:35:56;;;;;;;8.93;5.70;;;3.80;99.90;;;;;;5059191;28;20205;-88
2022/12/06 13:38:36;;;;;;;9.27;5.73;;;3.80;99.90;;;;;;5042276;28;20187;-84
2022/12/06 13:42:16;;;;;;;12.03;6.47;;;3.70;99.90;;;;;;5036190;28;20189;-87
2022/12/06 13:44:49;;;;;;;10.00;6.23;;;3.80;99.90;;;;;;5035438;28;20174;-85
2022/12/06 13:47:27;;;;;;;8.27;5.97;;;3.80;99.90;;;;;;5049100;28;20215;-84